Time;durP1;ratioP1;P1;durP2;ratioP2;P2;SDS_P1;SDS_P2;PMS_P1;PMS_P2;Temp;Humidity;BMP_temperature;BMP_pressure;BME280_temperature;BME280_humidity;BME280_pressure;Samples;Min_cycle;Max_cycle;Signal;HPM_P1;HPM_P2
2023/03/16 00:01:58;;;;;;;;;;;;;;;9.52;62.50;98331.09;5073595;28;20096;-79
2023/03/16 00:04:24;;;;;;;;;;;;;;;9.51;62.98;98344.28;5073576;28;19931;-79
2023/03/16 00:06:49;;;;;;;;;;;;;;;9.44;63.50;98337.69;5071410;28;19916;-79
2023/03/16 00:09:14;;;;;;;;;;;;;;;9.22;64.63;98332.25;5070416;28;19912;-79
2023/03/16 00:11:40;;;;;;;;;;;;;;;9.20;65.15;98339.38;5068550;28;19971;-78
2023/03/16 00:14:05;;;;;;;;;;;;;;;9.14;65.60;98338.81;5071510;28;20389;-79
2023/03/16 00:16:30;;;;;;;;;;;;;;;9.11;66.18;98340.34;5071946;28;19908;-79
2023/03/16 00:18:57;;;;;;;;;;;;;;;8.96;67.65;98333.50;5061790;28;19912;-79
2023/03/16 00:21:23;;;;;;;;;;;;;;;8.87;67.83;98329.22;5060202;28;20390;-79
2023/03/16 00:23:48;;;;;;;;;;;;;;;8.77;69.38;98334.13;5063971;28;19916;-79
2023/03/16 00:26:13;;;;;;;;;;;;;;;8.59;70.42;98333.56;5073108;28;19912;-79
2023/03/16 00:28:40;;;;;;;;;;;;;;;8.62;70.87;98332.06;5071970;28;19986;-79
2023/03/16 00:31:13;;;;;;;;;;;;;;;8.60;71.42;98334.38;5063090;28;19990;-79
2023/03/16 00:33:39;;;;;;;;;;;;;;;8.48;72.55;98335.16;5070217;28;19912;-79
2023/03/16 00:36:06;;;;;;;;;;;;;;;8.44;73.29;98329.47;5068146;28;19909;-79
2023/03/16 00:38:33;;;;;;;;;;;;;;;8.38;73.53;98333.66;5059419;28;19978;-79
2023/03/16 00:41:02;;;;;;;;;;;;;;;8.31;74.32;98336.19;5030751;28;1184003;-79
2023/03/16 00:43:27;;;;;;;;;;;;;;;8.31;74.87;98338.97;5072514;28;19912;-79
2023/03/16 00:46:05;;;;;;;;;;;;;;;8.26;74.69;98343.63;5073883;28;19961;-79
2023/03/16 00:48:33;;;;;;;;;;;;;;;8.29;74.68;98342.13;5068623;28;19915;-78
2023/03/16 00:50:58;;;;;;;;;;;;;;;8.26;74.75;98343.63;5063735;28;19989;-79
2023/03/16 00:53:24;;;;;;;;;;;;;;;8.27;75.25;98347.25;5072283;28;20383;-79
2023/03/16 00:55:49;;;;;;;;;;;;;;;8.20;75.82;98345.00;5068131;28;20011;-78
2023/03/16 00:58:14;;;;;;;;;;;;;;;8.21;75.58;98345.84;5067758;28;19916;-78
2023/03/16 01:00:39;;;;;;;;;;;;;;;8.23;74.88;98349.09;5057614;28;19919;-78
2023/03/16 01:03:05;;;;;;;;;;;;;;;8.09;74.93;98350.22;5066544;28;19939;-79
2023/03/16 01:05:32;;;;;;;;;;;;;;;8.04;73.78;98358.00;5065962;28;19909;-78
2023/03/16 01:07:58;;;;;;;;;;;;;;;7.92;74.34;98356.00;5067435;28;20420;-79
2023/03/16 01:10:24;;;;;;;;;;;;;;;7.90;74.28;98369.44;5073399;28;19915;-78
2023/03/16 01:12:49;;;;;;;;;;;;;;;7.82;72.77;98360.03;5072014;28;19916;-78
2023/03/16 01:15:14;;;;;;;;;;;;;;;7.72;72.51;98366.84;5053436;28;19995;-78
2023/03/16 01:17:40;;;;;;;;;;;;;;;7.62;72.02;98365.31;5068649;28;19912;-78
2023/03/16 01:20:10;;;;;;;;;;;;;;;7.57;72.00;98369.13;5053492;28;19915;-78
2023/03/16 01:22:36;;;;;;;;;;;;;;;7.51;71.68;98369.69;5073237;28;19912;-78
2023/03/16 01:25:01;;;;;;;;;;;;;;;7.46;71.29;98370.69;5073047;28;19969;-78
2023/03/16 01:27:26;;;;;;;;;;;;;;;7.35;71.33;98372.28;5070521;28;19962;-78
2023/03/16 01:29:52;;;;;;;;;;;;;;;7.29;71.53;98380.00;5072055;28;19913;-79
2023/03/16 01:32:17;;;;;;;;;;;;;;;7.25;71.20;98374.31;5070795;28;19912;-79
2023/03/16 01:34:42;;;;;;;;;;;;;;;7.23;71.75;98381.34;5072919;28;19974;-79
2023/03/16 01:37:08;;;;;;;;;;;;;;;7.22;71.12;98386.13;5065329;28;20397;-79
2023/03/16 01:39:33;;;;;;;;;;;;;;;7.22;71.04;98385.28;5063493;28;20280;-78
2023/03/16 01:41:58;;;;;;;;;;;;;;;7.17;71.32;98386.31;5051553;28;19942;-78
2023/03/16 01:44:31;;;;;;;;;;;;;;;7.15;71.72;98392.22;5072102;28;19916;-79
2023/03/16 01:46:56;;;;;;;;;;;;;;;7.20;71.53;98387.59;5060988;28;20082;-78
2023/03/16 01:49:29;;;;;;;;;;;;;;;7.25;71.50;98392.97;5065549;28;20046;-78
2023/03/16 01:51:57;;;;;;;;;;;;;;;7.21;71.59;98397.56;5056940;28;19991;-79
2023/03/16 01:54:25;;;;;;;;;;;;;;;7.23;71.61;98404.44;5068045;28;19920;-78
2023/03/16 01:57:05;;;;;;;;;;;;;;;7.25;71.87;98410.47;5069962;28;20046;-78
2023/03/16 01:59:50;;;;;;;;;;;;;;;7.27;71.69;98405.38;5061092;28;19912;-78
2023/03/16 02:02:18;;;;;;;;;;;;;;;7.28;71.39;98407.00;5066555;28;20390;-78
2023/03/16 02:04:47;;;;;;;;;;;;;;;7.29;71.93;98413.38;5065580;28;20000;-78
2023/03/16 02:07:15;;;;;;;;;;;;;;;7.32;71.51;98409.91;5052257;28;20375;-78
2023/03/16 02:09:45;;;;;;;;;;;;;;;7.27;71.40;98410.94;5052533;28;19912;-78
2023/03/16 02:12:16;;;;;;;;;;;;;;;7.13;71.62;98414.00;5075738;28;19939;-78
2023/03/16 02:14:42;;;;;;;;;;;;;;;7.16;71.15;98415.25;5066068;28;19909;-78
2023/03/16 02:17:07;;;;;;;;;;;;;;;7.10;71.30;98411.88;5070457;28;20003;-78
2023/03/16 02:19:43;;;;;;;;;;;;;;;7.03;71.07;98419.94;5070563;28;20371;-78
2023/03/16 02:22:09;;;;;;;;;;;;;;;6.95;70.62;98421.63;5055440;28;20087;-78
2023/03/16 02:24:35;;;;;;;;;;;;;;;6.93;70.72;98426.69;5050814;28;19947;-78
2023/03/16 02:27:03;;;;;;;;;;;;;;;6.87;70.99;98420.50;5050641;28;19953;-78
2023/03/16 02:29:43;;;;;;;;;;;;;;;6.86;70.81;98424.44;5067892;28;20362;-78
2023/03/16 02:32:10;;;;;;;;;;;;;;;6.83;70.88;98427.09;5070135;28;20401;-78
2023/03/16 02:34:35;;;;;;;;;;;;;;;6.78;70.82;98432.84;5068836;28;19923;-78
2023/03/16 02:37:02;;;;;;;;;;;;;;;6.70;70.78;98435.34;5063328;28;19909;-79
2023/03/16 02:39:27;;;;;;;;;;;;;;;6.64;71.08;98433.88;5059338;28;19956;-78
2023/03/16 02:41:52;;;;;;;;;;;;;;;6.63;71.77;98439.78;5068683;28;19920;-79
2023/03/16 02:44:26;;;;;;;;;;;;;;;6.55;72.21;98439.50;5054180;28;20287;-78
2023/03/16 02:46:53;;;;;;;;;;;;;;;6.49;72.15;98449.16;5063915;28;20425;-78
2023/03/16 02:49:23;;;;;;;;;;;;;;;6.40;72.46;98451.16;5054789;28;19912;-78
2023/03/16 02:51:49;;;;;;;;;;;;;;;6.34;72.76;98455.25;5065849;28;20307;-78
2023/03/16 02:54:14;;;;;;;;;;;;;;;6.34;72.90;98463.59;5054140;28;19924;-78
2023/03/16 02:56:40;;;;;;;;;;;;;;;6.34;72.89;98466.34;5071493;28;19920;-77
2023/03/16 02:59:06;;;;;;;;;;;;;;;6.32;73.38;98466.69;5069407;28;20348;-78
2023/03/16 03:01:33;;;;;;;;;;;;;;;6.30;73.74;98467.03;5070149;28;19916;-78
2023/03/16 03:03:59;;;;;;;;;;;;;;;6.30;73.92;98466.19;5071343;28;19918;-78
2023/03/16 03:06:24;;;;;;;;;;;;;;;6.28;74.11;98468.50;5058526;28;20052;-78
2023/03/16 03:08:50;;;;;;;;;;;;;;;6.22;74.73;98472.63;5070997;28;19954;-77
2023/03/16 03:11:17;;;;;;;;;;;;;;;6.25;74.69;98475.53;5070212;28;19912;-78
2023/03/16 03:13:43;;;;;;;;;;;;;;;6.20;74.89;98486.81;5071465;28;20310;-78
2023/03/16 03:16:08;;;;;;;;;;;;;;;6.15;75.04;98490.59;5070448;28;20416;-78
2023/03/16 03:18:34;;;;;;;;;;;;;;;6.17;75.55;98484.72;5071581;28;19969;-78
2023/03/16 03:20:59;;;;;;;;;;;;;;;6.09;76.09;98479.97;5070028;28;20015;-78
2023/03/16 03:23:24;;;;;;;;;;;;;;;6.13;76.62;98495.66;5070528;28;19912;-77
2023/03/16 03:25:49;;;;;;;;;;;;;;;6.07;76.59;98499.72;5070116;28;20398;-78
2023/03/16 03:28:15;;;;;;;;;;;;;;;6.10;76.32;98499.09;5071344;28;19909;-78
2023/03/16 03:30:40;;;;;;;;;;;;;;;6.09;76.30;98503.00;5070056;28;19968;-78
2023/03/16 03:33:05;;;;;;;;;;;;;;;6.03;76.69;98519.03;5070080;28;19912;-78
2023/03/16 03:35:31;;;;;;;;;;;;;;;6.02;76.62;98516.56;5067815;28;19913;-78
2023/03/16 03:37:56;;;;;;;;;;;;;;;5.96;75.80;98520.59;5060400;28;19985;-78
2023/03/16 03:40:21;;;;;;;;;;;;;;;5.90;74.53;98522.72;5068547;28;20003;-78
2023/03/16 03:42:47;;;;;;;;;;;;;;;5.80;74.53;98532.22;5067559;28;19917;-79
2023/03/16 03:45:12;;;;;;;;;;;;;;;5.76;74.80;98534.81;5066856;28;20372;-78
2023/03/16 03:47:38;;;;;;;;;;;;;;;5.69;74.44;98544.78;5056281;28;19962;-79
2023/03/16 03:50:04;;;;;;;;;;;;;;;5.66;74.77;98546.22;5069900;28;20031;-79
2023/03/16 03:52:29;;;;;;;;;;;;;;;5.62;74.58;98543.31;5069379;28;20319;-79
2023/03/16 03:54:55;;;;;;;;;;;;;;;5.56;75.98;98554.91;5062985;28;19963;-79
2023/03/16 03:57:20;;;;;;;;;;;;;;;5.61;75.41;98554.72;5055885;28;19987;-79
2023/03/16 03:59:45;;;;;;;;;;;;;;;5.60;74.75;98566.97;5073018;28;20025;-78
2023/03/16 04:02:12;;;;;;;;;;;;;;;5.56;74.48;98561.25;5057644;28;19916;-79
2023/03/16 04:04:37;;;;;;;;;;;;;;;5.53;74.86;98574.94;5073390;28;20007;-79
2023/03/16 04:07:03;;;;;;;;;;;;;;;5.54;74.59;98565.47;5072770;28;20375;-78
2023/03/16 04:09:28;;;;;;;;;;;;;;;5.59;73.75;98562.56;5073752;28;20379;-79
2023/03/16 04:11:56;;;;;;;;;;;;;;;5.49;73.98;98569.25;5067108;28;20494;-79
2023/03/16 04:14:21;;;;;;;;;;;;;;;5.46;73.66;98565.16;5055078;28;19916;-79
2023/03/16 04:16:47;;;;;;;;;;;;;;;5.48;73.35;98571.19;5059062;28;20291;-79
2023/03/16 04:19:12;;;;;;;;;;;;;;;5.49;72.85;98577.56;5072820;28;19913;-78
2023/03/16 04:21:37;;;;;;;;;;;;;;;5.45;72.09;98580.16;5068071;28;19917;-79
2023/03/16 04:24:04;;;;;;;;;;;;;;;5.45;72.75;98585.72;5068071;28;19912;-79
2023/03/16 04:26:30;;;;;;;;;;;;;;;5.50;71.19;98581.13;5073961;28;19943;-79
2023/03/16 04:28:55;;;;;;;;;;;;;;;5.48;71.47;98587.00;5067022;28;19927;-78
2023/03/16 04:31:21;;;;;;;;;;;;;;;5.50;71.55;98583.91;5062170;28;20496;-78
2023/03/16 04:33:46;;;;;;;;;;;;;;;5.40;71.06;98593.34;5070624;28;19920;-79
2023/03/16 04:36:11;;;;;;;;;;;;;;;5.44;71.15;98584.06;5072080;28;20386;-78
2023/03/16 04:38:37;;;;;;;;;;;;;;;5.42;69.62;98597.41;5067869;28;19963;-79
2023/03/16 04:41:03;;;;;;;;;;;;;;;5.42;70.50;98589.09;5065619;28;19920;-78
2023/03/16 04:43:29;;;;;;;;;;;;;;;5.46;69.50;98595.66;5061044;28;20394;-78
2023/03/16 04:45:54;;;;;;;;;;;;;;;5.42;70.01;98597.41;5068958;28;19951;-79
2023/03/16 04:48:19;;;;;;;;;;;;;;;5.44;69.21;98603.50;5067184;28;19912;-78
2023/03/16 04:50:46;;;;;;;;;;;;;;;5.39;69.60;98603.63;5055264;28;20379;-78
2023/03/16 04:53:12;;;;;;;;;;;;;;;5.38;69.44;98610.31;5062174;28;20425;-77
2023/03/16 04:55:37;;;;;;;;;;;;;;;5.36;68.88;98615.38;5073913;28;19962;-81
2023/03/16 04:58:03;;;;;;;;;;;;;;;5.39;68.50;98609.16;5071805;28;19920;-76
2023/03/16 05:00:28;;;;;;;;;;;;;;;5.38;69.10;98620.59;5072087;28;19920;-75
2023/03/16 05:02:53;;;;;;;;;;;;;;;5.39;69.15;98625.00;5070259;28;19918;-77
2023/03/16 05:05:20;;;;;;;;;;;;;;;5.39;69.37;98625.00;5072194;28;20378;-71
2023/03/16 05:07:46;;;;;;;;;;;;;;;5.39;69.44;98630.56;5069987;28;19913;-73
2023/03/16 05:10:12;;;;;;;;;;;;;;;5.37;68.61;98628.09;5072683;28;19919;-75
2023/03/16 05:12:37;;;;;;;;;;;;;;;5.46;68.17;98636.44;5071569;28;20425;-77
2023/03/16 05:15:04;;;;;;;;;;;;;;;5.39;67.88;98636.09;5070933;28;19916;-77
2023/03/16 05:17:29;;;;;;;;;;;;;;;5.35;67.50;98638.69;5071933;28;19964;-77
2023/03/16 05:19:54;;;;;;;;;;;;;;;5.36;67.74;98650.59;5072105;28;20429;-80
2023/03/16 05:22:20;;;;;;;;;;;;;;;5.35;68.05;98647.00;5071972;28;20397;-77
2023/03/16 05:24:45;;;;;;;;;;;;;;;5.38;67.75;98663.00;5073174;28;19999;-73
2023/03/16 05:27:10;;;;;;;;;;;;;;;5.31;67.27;98663.47;5073102;28;19908;-76
2023/03/16 05:29:35;;;;;;;;;;;;;;;5.32;67.30;98669.84;5071761;28;19908;-80
2023/03/16 05:32:01;;;;;;;;;;;;;;;5.40;67.47;98668.25;5072947;28;19962;-74
2023/03/16 05:34:26;;;;;;;;;;;;;;;5.41;67.67;98676.22;5070341;28;19943;-75
2023/03/16 05:36:52;;;;;;;;;;;;;;;5.49;67.24;98669.09;5070738;28;19912;-75
2023/03/16 05:39:17;;;;;;;;;;;;;;;5.54;67.81;98676.44;5070348;28;19908;-77
2023/03/16 05:41:42;;;;;;;;;;;;;;;5.50;67.51;98681.84;5065620;28;19919;-80
2023/03/16 05:44:08;;;;;;;;;;;;;;;5.54;67.51;98685.59;5072620;28;20400;-76
2023/03/16 05:46:33;;;;;;;;;;;;;;;5.62;66.71;98683.97;5067571;28;19908;-75
2023/03/16 05:48:59;;;;;;;;;;;;;;;5.55;67.12;98687.22;5072527;28;19916;-73
2023/03/16 05:51:25;;;;;;;;;;;;;;;5.53;66.30;98691.44;5071310;28;19908;-75
2023/03/16 05:53:51;;;;;;;;;;;;;;;5.57;66.39;98698.00;5059703;28;19916;-75
2023/03/16 05:56:16;;;;;;;;;;;;;;;5.60;65.94;98697.38;5071354;28;19908;-75
2023/03/16 05:58:41;;;;;;;;;;;;;;;5.56;65.87;98707.47;5064271;28;19939;-76
2023/03/16 06:01:08;;;;;;;;;;;;;;;5.58;65.95;98705.19;5058812;28;19908;-73
2023/03/16 06:03:33;;;;;;;;;;;;;;;5.54;65.53;98712.50;5069474;28;19912;-79
2023/03/16 06:05:59;;;;;;;;;;;;;;;5.59;66.21;98702.06;5068717;28;20067;-77
2023/03/16 06:08:24;;;;;;;;;;;;;;;5.62;65.53;98712.56;5060305;28;19913;-78
2023/03/16 06:10:49;;;;;;;;;;;;;;;5.58;65.74;98710.75;5053256;28;19963;-78
2023/03/16 06:13:14;;;;;;;;;;;;;;;5.53;65.02;98705.31;5058507;28;20437;-76
2023/03/16 06:15:40;;;;;;;;;;;;;;;5.48;65.94;98722.91;5061017;28;19919;-76
2023/03/16 06:18:06;;;;;;;;;;;;;;;5.51;66.40;98727.00;5058042;28;19924;-75
2023/03/16 06:20:31;;;;;;;;;;;;;;;5.48;65.24;98720.97;5060688;28;19913;-76
2023/03/16 06:22:57;;;;;;;;;;;;;;;5.47;65.76;98729.59;5065056;28;19999;-74
2023/03/16 06:25:22;;;;;;;;;;;;;;;5.48;64.53;98729.28;5068179;28;19916;-73
2023/03/16 06:27:49;;;;;;;;;;;;;;;5.50;64.88;98736.47;5050974;28;19909;-73
2023/03/16 06:30:14;;;;;;;;;;;;;;;5.50;64.36;98725.38;5058815;28;19935;-73
2023/03/16 06:32:44;;;;;;;;;;;;;;;5.58;64.94;98736.50;5057844;28;19920;-71
2023/03/16 06:35:10;;;;;;;;;;;;;;;5.51;64.07;98743.66;5057450;28;19935;-73
2023/03/16 06:37:35;;;;;;;;;;;;;;;5.57;64.81;98747.94;5067467;28;19912;-72
2023/03/16 06:40:00;;;;;;;;;;;;;;;5.61;63.28;98757.25;5063052;28;19935;-75
2023/03/16 06:42:26;;;;;;;;;;;;;;;5.61;63.88;98758.09;5061921;28;20021;-72
2023/03/16 06:44:51;;;;;;;;;;;;;;;5.69;63.46;98761.22;5068200;28;19918;-73
2023/03/16 06:47:17;;;;;;;;;;;;;;;5.68;63.63;98765.13;5066732;28;20387;-74
2023/03/16 06:49:42;;;;;;;;;;;;;;;5.73;62.85;98774.13;5075323;28;19927;-74
2023/03/16 06:52:09;;;;;;;;;;;;;;;5.72;62.91;98778.03;5064938;28;19912;-76
2023/03/16 06:54:36;;;;;;;;;;;;;;;5.72;63.27;98785.53;5062221;28;19951;-73
2023/03/16 06:57:02;;;;;;;;;;;;;;;5.78;63.52;98789.00;5061439;28;20404;-72
2023/03/16 06:59:27;;;;;;;;;;;;;;;5.81;62.53;98782.81;5065647;28;19999;-76
2023/03/16 07:01:52;;;;;;;;;;;;;;;5.76;62.77;98790.13;5071865;28;20284;-76
2023/03/16 07:04:17;;;;;;;;;;;;;;;5.76;62.21;98803.19;5062670;28;20383;-73
2023/03/16 07:06:43;;;;;;;;;;;;;;;5.85;62.97;98798.50;5074197;28;19919;-74
2023/03/16 07:09:08;;;;;;;;;;;;;;;5.89;62.47;98801.44;5071040;28;20366;-74
2023/03/16 07:11:34;;;;;;;;;;;;;;;5.95;62.28;98804.91;5071442;28;20248;-72
2023/03/16 07:14:00;;;;;;;;;;;;;;;6.03;63.01;98810.53;5070794;28;19917;-72
2023/03/16 07:16:25;;;;;;;;;;;;;;;6.11;62.52;98814.47;5069922;28;19908;-73
2023/03/16 07:18:51;;;;;;;;;;;;;;;6.20;61.68;98819.22;5071068;28;19913;-74
2023/03/16 07:21:16;;;;;;;;;;;;;;;6.28;62.25;98824.00;5071358;28;19908;-73
2023/03/16 07:23:41;;;;;;;;;;;;;;;6.43;61.56;98819.97;5070513;28;19912;-75
2023/03/16 07:26:07;;;;;;;;;;;;;;;6.54;61.00;98812.97;5071089;28;19916;-73
2023/03/16 07:28:33;;;;;;;;;;;;;;;6.63;60.47;98826.03;5070213;28;20069;-73
2023/03/16 07:30:58;;;;;;;;;;;;;;;6.55;60.20;98824.88;5071207;28;19947;-76
2023/03/16 07:33:23;;;;;;;;;;;;;;;6.58;60.63;98816.72;5073403;28;19993;-71
2023/03/16 07:35:50;;;;;;;;;;;;;;;6.67;60.77;98829.81;5074061;28;19917;-72
2023/03/16 07:38:16;;;;;;;;;;;;;;;6.80;60.57;98820.50;5072751;28;19912;-73
2023/03/16 07:40:41;;;;;;;;;;;;;;;6.85;60.03;98820.34;5060621;28;19916;-74
2023/03/16 07:43:06;;;;;;;;;;;;;;;6.83;59.50;98821.84;5067808;28;19912;-74
2023/03/16 07:45:32;;;;;;;;;;;;;;;6.66;59.77;98830.97;5072876;28;19918;-74
2023/03/16 07:47:57;;;;;;;;;;;;;;;6.65;59.62;98821.78;5073251;28;19912;-74
2023/03/16 07:50:22;;;;;;;;;;;;;;;6.63;59.82;98821.31;5074160;28;19909;-74
2023/03/16 07:52:48;;;;;;;;;;;;;;;6.69;59.90;98827.53;5074145;28;19920;-74
2023/03/16 07:55:14;;;;;;;;;;;;;;;6.73;59.16;98832.13;5074243;28;20011;-75
2023/03/16 07:57:41;;;;;;;;;;;;;;;6.67;59.42;98818.69;5070584;28;19999;-72
2023/03/16 08:00:06;;;;;;;;;;;;;;;6.71;59.07;98825.22;5063800;28;19921;-75
2023/03/16 08:02:32;;;;;;;;;;;;;;;6.81;60.07;98835.22;5073917;28;20398;-75
2023/03/16 08:04:58;;;;;;;;;;;;;;;6.74;59.24;98830.97;5071953;28;20288;-75
2023/03/16 08:07:23;;;;;;;;;;;;;;;6.73;59.29;98834.06;5072106;28;19924;-74
2023/03/16 08:09:50;;;;;;;;;;;;;;;6.70;58.59;98831.94;5070769;28;19946;-74
2023/03/16 08:12:16;;;;;;;;;;;;;;;6.73;58.67;98834.06;5069237;28;20390;-75
2023/03/16 08:14:43;;;;;;;;;;;;;;;6.70;58.17;98840.28;5073507;28;19916;-73
2023/03/16 08:17:09;;;;;;;;;;;;;;;6.85;58.36;98850.13;5070218;28;19935;-75
2023/03/16 08:19:34;;;;;;;;;;;;;;;6.95;58.21;98835.06;5072806;28;19916;-73
2023/03/16 08:22:00;;;;;;;;;;;;;;;6.91;57.69;98842.44;5070676;28;19919;-76
2023/03/16 08:24:26;;;;;;;;;;;;;;;7.02;57.35;98843.75;5060317;28;20359;-78
2023/03/16 08:26:51;;;;;;;;;;;;;;;7.02;57.57;98832.63;5072336;28;19920;-77
2023/03/16 08:29:17;;;;;;;;;;;;;;;7.10;57.56;98842.91;5068419;28;19951;-77
2023/03/16 08:31:43;;;;;;;;;;;;;;;7.15;57.91;98851.13;5071582;28;20427;-76
2023/03/16 08:34:09;;;;;;;;;;;;;;;7.13;57.37;98847.84;5072654;28;19920;-76
2023/03/16 08:36:35;;;;;;;;;;;;;;;7.26;56.99;98842.44;5073265;28;20562;-76
2023/03/16 08:39:02;;;;;;;;;;;;;;;7.33;56.79;98848.31;5071609;28;20365;-76
2023/03/16 08:41:29;;;;;;;;;;;;;;;7.44;56.47;98860.75;5069160;28;19981;-76
2023/03/16 08:43:55;;;;;;;;;;;;;;;7.47;56.60;98847.31;5072043;28;19916;-76
2023/03/16 08:46:20;;;;;;;;;;;;;;;7.44;56.47;98849.63;5071539;28;19919;-75
2023/03/16 08:48:47;;;;;;;;;;;;;;;7.44;55.36;98841.25;5071155;28;20432;-78
2023/03/16 08:51:12;;;;;;;;;;;;;;;7.51;55.43;98848.31;5063557;28;19935;-76
2023/03/16 08:53:38;;;;;;;;;;;;;;;7.52;55.35;98853.53;5073747;28;19913;-75
2023/03/16 08:56:05;;;;;;;;;;;;;;;7.54;55.75;98854.03;5070358;28;19912;-76
2023/03/16 08:58:31;;;;;;;;;;;;;;;7.64;55.07;98852.88;5072378;28;19916;-76
2023/03/16 09:00:57;;;;;;;;;;;;;;;7.63;55.72;98856.81;5064177;28;19913;-76
2023/03/16 09:03:22;;;;;;;;;;;;;;;7.57;54.51;98863.66;5070866;28;20039;-75
2023/03/16 09:05:48;;;;;;;;;;;;;;;7.63;55.25;98854.03;5072950;28;19909;-76
2023/03/16 09:08:13;;;;;;;;;;;;;;;7.71;54.71;98855.94;5069898;28;19985;-76
2023/03/16 09:10:39;;;;;;;;;;;;;;;7.82;54.35;98870.34;5068367;28;20312;-76
2023/03/16 09:13:04;;;;;;;;;;;;;;;7.73;54.24;98856.47;5069746;28;19922;-76
2023/03/16 09:15:30;;;;;;;;;;;;;;;7.80;54.61;98860.69;5061466;28;20315;-75
2023/03/16 09:17:56;;;;;;;;;;;;;;;7.68;54.00;98862.19;5070003;28;19919;-76
2023/03/16 09:20:22;;;;;;;;;;;;;;;7.59;53.72;98876.13;5069154;28;19951;-76
2023/03/16 09:22:47;;;;;;;;;;;;;;;7.44;54.65;98871.88;5065966;28;20000;-75
2023/03/16 09:25:13;;;;;;;;;;;;;;;7.64;54.21;98868.75;5057036;28;20314;-76
2023/03/16 09:27:38;;;;;;;;;;;;;;;7.50;53.52;98871.72;5071073;28;20358;-75
2023/03/16 09:30:05;;;;;;;;;;;;;;;7.53;53.89;98876.63;5070836;28;19913;-76
2023/03/16 09:32:30;;;;;;;;;;;;;;;7.48;54.47;98876.78;5070937;28;20007;-76
2023/03/16 09:34:56;;;;;;;;;;;;;;;7.53;54.35;98871.06;5073023;28;20008;-76
2023/03/16 09:37:21;;;;;;;;;;;;;;;7.48;54.33;98871.22;5072253;28;19919;-76
2023/03/16 09:39:48;;;;;;;;;;;;;;;7.72;53.30;98882.66;5070482;28;19917;-76
2023/03/16 09:42:13;;;;;;;;;;;;;;;7.59;53.52;98873.34;5070260;28;20637;-76
2023/03/16 09:44:57;;;;;;;;;;;;;;;7.55;53.50;98877.09;5069651;28;19912;-76
2023/03/16 09:47:26;;;;;;;;;;;;;;;7.56;53.80;98876.78;5070686;28;19994;-77
2023/03/16 09:49:51;;;;;;;;;;;;;;;7.66;52.71;98881.19;5069619;28;19923;-76
2023/03/16 09:52:36;;;;;;;;;;;;;;;7.64;53.64;98879.88;5070304;28;20302;-77
2023/03/16 09:55:10;;;;;;;;;;;;;;;7.57;53.13;98897.06;5070086;28;19924;-78
2023/03/16 09:57:39;;;;;;;;;;;;;;;7.65;53.00;98887.06;5067488;28;19924;-76
2023/03/16 10:00:15;;;;;;;;;;;;;;;7.50;53.26;98882.84;5087242;28;19920;-77
2023/03/16 10:02:52;;;;;;;;;;;;;;;7.71;53.89;98880.19;5069106;28;19974;-76
2023/03/16 10:05:22;;;;;;;;;;;;;;;7.75;53.12;98885.94;5065560;28;19916;-76
2023/03/16 10:07:52;;;;;;;;;;;;;;;7.77;53.12;98889.19;5064494;28;19916;-76
2023/03/16 10:10:21;;;;;;;;;;;;;;;7.80;53.07;98885.75;5061460;28;19916;-76
2023/03/16 10:12:49;;;;;;;;;;;;;;;7.87;53.47;98880.50;5065973;28;19917;-75
2023/03/16 10:15:17;;;;;;;;;;;;;;;7.82;52.03;98881.50;5059433;28;20389;-76
2023/03/16 10:17:51;;;;;;;;;;;;;;;7.93;53.04;98881.13;5055143;28;19932;-74
2023/03/16 10:20:17;;;;;;;;;;;;;;;7.87;52.73;98878.50;5054963;28;19974;-74
2023/03/16 10:22:44;;;;;;;;;;;;;;;7.78;52.95;98880.50;5063246;28;19912;-74
2023/03/16 10:25:15;;;;;;;;;;;;;;;7.77;53.15;98884.44;5060413;28;19916;-75
2023/03/16 10:27:44;;;;;;;;;;;;;;;7.77;52.76;98890.00;5054350;28;19916;-75
2023/03/16 10:30:23;;;;;;;;;;;;;;;7.84;52.50;98900.63;5060437;28;19923;-73
2023/03/16 10:32:49;;;;;;;;;;;;;;;7.96;52.07;98886.03;5059803;28;20009;-75
2023/03/16 10:35:33;;;;;;;;;;;;;;;7.99;51.86;98875.06;5065059;28;20314;-74
2023/03/16 10:37:59;;;;;;;;;;;;;;;7.97;52.35;98882.09;5059890;28;19951;-75
2023/03/16 10:40:25;;;;;;;;;;;;;;;8.12;52.15;98887.13;5062168;28;20013;-76
2023/03/16 10:42:50;;;;;;;;;;;;;;;8.22;52.02;98880.38;5058920;28;19916;-76
2023/03/16 10:45:24;;;;;;;;;;;;;;;8.17;51.54;98891.69;5061649;28;19931;-75
2023/03/16 10:47:49;;;;;;;;;;;;;;;8.12;52.03;98886.31;5058597;28;19912;-76
2023/03/16 10:50:19;;;;;;;;;;;;;;;8.12;51.39;98878.75;5060472;28;19918;-76
2023/03/16 10:52:47;;;;;;;;;;;;;;;8.37;51.94;98878.19;5057206;28;20015;-76
2023/03/16 10:55:23;;;;;;;;;;;;;;;8.46;51.53;98875.34;5059267;28;19912;-76
2023/03/16 10:57:55;;;;;;;;;;;;;;;8.56;50.37;98881.38;5065763;28;19978;-76
2023/03/16 11:00:28;;;;;;;;;;;;;;;8.49;50.02;98891.41;5063240;28;20011;-76
2023/03/16 11:02:55;;;;;;;;;;;;;;;8.33;50.64;98880.03;5061558;28;19912;-76
2023/03/16 11:05:21;;;;;;;;;;;;;;;8.50;50.01;98876.31;5071146;28;19977;-76
2023/03/16 11:07:54;;;;;;;;;;;;;;;8.66;49.95;98880.22;5065652;28;20311;-76
2023/03/16 11:10:28;;;;;;;;;;;;;;;8.84;49.64;98871.72;5062786;28;19916;-76
2023/03/16 11:12:54;;;;;;;;;;;;;;;8.91;50.34;98877.59;5063426;28;20394;-76
2023/03/16 11:15:20;;;;;;;;;;;;;;;8.92;50.15;98872.81;5068339;28;19923;-74
2023/03/16 11:17:48;;;;;;;;;;;;;;;8.96;49.46;98868.22;5065319;28;19943;-76
2023/03/16 11:20:20;;;;;;;;;;;;;;;9.13;49.55;98873.66;5058343;28;19937;-76
2023/03/16 11:22:47;;;;;;;;;;;;;;;9.12;49.21;98869.25;5054924;28;20003;-76
2023/03/16 11:25:16;;;;;;;;;;;;;;;9.21;49.76;98862.78;5062922;28;19912;-75
2023/03/16 11:27:59;;;;;;;;;;;;;;;9.46;48.30;98865.69;5060184;28;19920;-75
2023/03/16 11:30:28;;;;;;;;;;;;;;;9.24;49.21;98864.88;5072409;28;19912;-74
2023/03/16 11:32:53;;;;;;;;;;;;;;;9.23;48.19;98871.63;5073165;28;20007;-77
2023/03/16 11:35:21;;;;;;;;;;;;;;;9.21;48.45;98858.00;5070577;28;20370;-76
2023/03/16 11:38:05;;;;;;;;;;;;;;;9.06;48.96;98864.19;5064268;28;20290;-74
2023/03/16 11:40:37;;;;;;;;;;;;;;;9.04;49.46;98864.53;5063859;28;20058;-74
2023/03/16 11:43:08;;;;;;;;;;;;;;;9.20;48.95;98870.31;5069640;28;19916;-76
2023/03/16 11:45:41;;;;;;;;;;;;;;;9.07;48.56;98866.66;5067666;28;20302;-77
2023/03/16 11:48:16;;;;;;;;;;;;;;;9.07;48.68;98869.44;5069348;28;20007;-76
2023/03/16 11:51:02;;;;;;;;;;;;;;;9.16;50.25;98872.16;5071220;28;19912;-74
2023/03/16 11:53:40;;;;;;;;;;;;;;;9.22;49.01;98868.00;5069025;28;19921;-73
2023/03/16 11:56:11;;;;;;;;;;;;;;;9.17;48.86;98873.81;5061976;28;19966;-77
2023/03/16 11:58:39;;;;;;;;;;;;;;;9.29;49.08;98867.47;5059160;28;19912;-76
2023/03/16 12:01:08;;;;;;;;;;;;;;;9.21;48.32;98871.16;5063936;28;19916;-77
2023/03/16 12:03:36;;;;;;;;;;;;;;;9.28;48.92;98874.19;5060618;28;19920;-77
2023/03/16 12:06:20;;;;;;;;;;;;;;;9.36;49.14;98878.91;5071166;28;19916;-77
2023/03/16 12:09:05;;;;;;;;;;;;;;;9.05;49.47;98868.97;5064017;28;19916;-77
2023/03/16 12:11:37;;;;;;;;;;;;;;;9.00;48.92;98871.94;5059626;28;19920;-78
2023/03/16 12:14:13;;;;;;;;;;;;;;;8.78;48.88;98861.94;5060716;28;19916;-77
2023/03/16 12:16:41;;;;;;;;;;;;;;;8.84;49.34;98875.34;5058597;28;19929;-77
2023/03/16 12:19:27;;;;;;;;;;;;;;;8.82;49.33;98877.66;5062019;28;20015;-77
2023/03/16 12:22:01;;;;;;;;;;;;;;;8.88;49.40;98886.66;5029664;28;19923;-77
2023/03/16 12:24:31;;;;;;;;;;;;;;;9.08;48.93;98879.44;5057059;28;19919;-78
2023/03/16 12:26:57;;;;;;;;;;;;;;;8.88;48.88;98883.03;5071410;28;19951;-78
2023/03/16 12:29:34;;;;;;;;;;;;;;;8.97;48.85;98884.59;5071606;28;19916;-78
2023/03/16 12:32:27;;;;;;;;;;;;;;;8.71;49.31;98893.16;5063655;28;19965;-77
2023/03/16 12:34:52;;;;;;;;;;;;;;;8.88;48.42;98885.81;5079337;28;19920;-78
2023/03/16 12:37:26;;;;;;;;;;;;;;;8.87;48.71;98892.56;5067476;28;19920;-78
2023/03/16 12:40:06;;;;;;;;;;;;;;;8.71;48.94;98901.50;5065751;28;19920;-77
2023/03/16 12:42:44;;;;;;;;;;;;;;;8.79;49.54;98897.03;5060355;28;19920;-77
2023/03/16 12:45:28;;;;;;;;;;;;;;;8.89;48.99;98901.41;5064415;28;19920;-77
2023/03/16 12:48:03;;;;;;;;;;;;;;;8.93;48.75;98893.97;5058353;28;19955;-77
2023/03/16 12:50:28;;;;;;;;;;;;;;;8.74;48.26;98903.63;5067615;28;19935;-78
2023/03/16 12:52:53;;;;;;;;;;;;;;;8.88;48.38;98897.81;5064816;28;19917;-77
2023/03/16 12:55:19;;;;;;;;;;;;;;;9.00;48.49;98908.22;5068281;28;20011;-76
2023/03/16 12:57:45;;;;;;;;;;;;;;;9.05;48.62;98908.03;5070734;28;19916;-77
2023/03/16 13:00:12;;;;;;;;;;;;;;;8.96;49.02;98910.84;5065512;28;19920;-77